sensor_id;sensor_type;location;lat;lon;timestamp;P1;durP1;ratioP1;P2;durP2;ratioP2
13228;SDS011;6680;53.220;10.402;2022-09-17T00:01:58;9.47;;;1.83;;
13228;SDS011;6680;53.220;10.402;2022-09-17T00:04:25;6.23;;;2.80;;
13228;SDS011;6680;53.220;10.402;2022-09-17T00:06:52;5.70;;;2.33;;
13228;SDS011;6680;53.220;10.402;2022-09-17T00:09:18;5.63;;;2.27;;
13228;SDS011;6680;53.220;10.402;2022-09-17T00:11:45;7.40;;;3.60;;
13228;SDS011;6680;53.220;10.402;2022-09-17T00:14:14;9.90;;;2.60;;
13228;SDS011;6680;53.220;10.402;2022-09-17T00:16:42;10.93;;;2.70;;
13228;SDS011;6680;53.220;10.402;2022-09-17T00:19:11;9.23;;;2.47;;
13228;SDS011;6680;53.220;10.402;2022-09-17T00:21:40;6.07;;;2.43;;
13228;SDS011;6680;53.220;10.402;2022-09-17T00:24:08;5.60;;;2.00;;
13228;SDS011;6680;53.220;10.402;2022-09-17T00:26:37;9.57;;;2.57;;
13228;SDS011;6680;53.220;10.402;2022-09-17T00:29:04;6.33;;;2.10;;
13228;SDS011;6680;53.220;10.402;2022-09-17T00:31:32;7.53;;;2.17;;
13228;SDS011;6680;53.220;10.402;2022-09-17T00:34:00;7.47;;;2.20;;
13228;SDS011;6680;53.220;10.402;2022-09-17T00:36:28;5.30;;;2.87;;
13228;SDS011;6680;53.220;10.402;2022-09-17T00:38:56;4.10;;;1.80;;
13228;SDS011;6680;53.220;10.402;2022-09-17T00:41:25;6.03;;;2.07;;
13228;SDS011;6680;53.220;10.402;2022-09-17T00:43:54;7.30;;;2.70;;
13228;SDS011;6680;53.220;10.402;2022-09-17T00:46:24;12.90;;;3.23;;
13228;SDS011;6680;53.220;10.402;2022-09-17T00:48:58;6.50;;;2.70;;
13228;SDS011;6680;53.220;10.402;2022-09-17T00:51:32;8.80;;;2.67;;
13228;SDS011;6680;53.220;10.402;2022-09-17T00:54:02;8.60;;;2.17;;
13228;SDS011;6680;53.220;10.402;2022-09-17T00:56:31;11.20;;;2.90;;
13228;SDS011;6680;53.220;10.402;2022-09-17T00:59:00;7.43;;;3.07;;
13228;SDS011;6680;53.220;10.402;2022-09-17T01:01:28;14.87;;;2.70;;
13228;SDS011;6680;53.220;10.402;2022-09-17T01:03:54;8.33;;;2.53;;
13228;SDS011;6680;53.220;10.402;2022-09-17T01:06:24;9.60;;;2.60;;
13228;SDS011;6680;53.220;10.402;2022-09-17T01:09:04;8.97;;;2.80;;
13228;SDS011;6680;53.220;10.402;2022-09-17T01:11:44;6.67;;;2.70;;
13228;SDS011;6680;53.220;10.402;2022-09-17T01:14:25;13.27;;;2.40;;
13228;SDS011;6680;53.220;10.402;2022-09-17T01:17:04;9.23;;;2.67;;
13228;SDS011;6680;53.220;10.402;2022-09-17T01:19:56;7.60;;;2.60;;
13228;SDS011;6680;53.220;10.402;2022-09-17T01:22:41;5.03;;;2.10;;
13228;SDS011;6680;53.220;10.402;2022-09-17T01:25:20;11.83;;;2.67;;
13228;SDS011;6680;53.220;10.402;2022-09-17T01:31:01;7.57;;;2.47;;
13228;SDS011;6680;53.220;10.402;2022-09-17T01:33:36;7.90;;;1.90;;
13228;SDS011;6680;53.220;10.402;2022-09-17T01:36:10;7.33;;;2.30;;
13228;SDS011;6680;53.220;10.402;2022-09-17T01:38:44;8.07;;;2.67;;
13228;SDS011;6680;53.220;10.402;2022-09-17T01:41:19;8.27;;;2.50;;
13228;SDS011;6680;53.220;10.402;2022-09-17T01:43:54;9.60;;;2.27;;
13228;SDS011;6680;53.220;10.402;2022-09-17T01:46:29;16.90;;;2.43;;
13228;SDS011;6680;53.220;10.402;2022-09-17T01:48:59;3.83;;;2.17;;
13228;SDS011;6680;53.220;10.402;2022-09-17T01:51:31;7.73;;;2.73;;
13228;SDS011;6680;53.220;10.402;2022-09-17T01:54:02;5.77;;;2.13;;
13228;SDS011;6680;53.220;10.402;2022-09-17T01:56:34;7.93;;;2.20;;
13228;SDS011;6680;53.220;10.402;2022-09-17T01:59:05;6.90;;;2.10;;
13228;SDS011;6680;53.220;10.402;2022-09-17T02:01:37;10.03;;;2.83;;
13228;SDS011;6680;53.220;10.402;2022-09-17T02:04:08;11.97;;;2.83;;
13228;SDS011;6680;53.220;10.402;2022-09-17T02:06:42;4.70;;;1.80;;
13228;SDS011;6680;53.220;10.402;2022-09-17T02:09:13;8.57;;;2.40;;
13228;SDS011;6680;53.220;10.402;2022-09-17T02:11:43;6.57;;;2.33;;
13228;SDS011;6680;53.220;10.402;2022-09-17T02:14:14;7.57;;;2.00;;
13228;SDS011;6680;53.220;10.402;2022-09-17T02:16:48;8.00;;;2.00;;
13228;SDS011;6680;53.220;10.402;2022-09-17T02:19:19;8.00;;;2.10;;
13228;SDS011;6680;53.220;10.402;2022-09-17T02:21:49;10.77;;;2.03;;
13228;SDS011;6680;53.220;10.402;2022-09-17T02:24:22;6.13;;;2.00;;
13228;SDS011;6680;53.220;10.402;2022-09-17T02:26:53;5.90;;;2.63;;
13228;SDS011;6680;53.220;10.402;2022-09-17T02:29:25;10.30;;;2.50;;
13228;SDS011;6680;53.220;10.402;2022-09-17T02:31:58;5.83;;;2.50;;
13228;SDS011;6680;53.220;10.402;2022-09-17T02:34:25;7.40;;;2.47;;
13228;SDS011;6680;53.220;10.402;2022-09-17T02:36:53;8.37;;;1.90;;
13228;SDS011;6680;53.220;10.402;2022-09-17T02:39:20;4.10;;;2.03;;
13228;SDS011;6680;53.220;10.402;2022-09-17T02:41:51;6.63;;;1.70;;
13228;SDS011;6680;53.220;10.402;2022-09-17T02:44:25;7.70;;;2.03;;
13228;SDS011;6680;53.220;10.402;2022-09-17T02:47:01;3.50;;;2.10;;
13228;SDS011;6680;53.220;10.402;2022-09-17T02:49:53;10.93;;;3.10;;
13228;SDS011;6680;53.220;10.402;2022-09-17T02:52:34;5.17;;;1.63;;
13228;SDS011;6680;53.220;10.402;2022-09-17T02:55:11;5.80;;;2.03;;
13228;SDS011;6680;53.220;10.402;2022-09-17T02:57:44;8.37;;;2.20;;
13228;SDS011;6680;53.220;10.402;2022-09-17T03:00:18;10.97;;;2.10;;
13228;SDS011;6680;53.220;10.402;2022-09-17T03:02:49;5.77;;;2.27;;
13228;SDS011;6680;53.220;10.402;2022-09-17T03:05:18;4.87;;;2.17;;
13228;SDS011;6680;53.220;10.402;2022-09-17T03:07:46;2.93;;;1.70;;
13228;SDS011;6680;53.220;10.402;2022-09-17T03:10:13;6.87;;;2.57;;
13228;SDS011;6680;53.220;10.402;2022-09-17T03:12:40;7.60;;;2.10;;
13228;SDS011;6680;53.220;10.402;2022-09-17T03:15:07;10.27;;;2.50;;
13228;SDS011;6680;53.220;10.402;2022-09-17T03:17:34;8.27;;;2.57;;
13228;SDS011;6680;53.220;10.402;2022-09-17T03:20:03;7.23;;;1.63;;
13228;SDS011;6680;53.220;10.402;2022-09-17T03:22:30;10.87;;;2.30;;
13228;SDS011;6680;53.220;10.402;2022-09-17T03:24:57;8.77;;;2.27;;
13228;SDS011;6680;53.220;10.402;2022-09-17T03:27:23;5.40;;;1.50;;
13228;SDS011;6680;53.220;10.402;2022-09-17T03:29:50;9.23;;;2.97;;
13228;SDS011;6680;53.220;10.402;2022-09-17T03:32:17;7.63;;;1.97;;
13228;SDS011;6680;53.220;10.402;2022-09-17T03:34:44;6.00;;;2.27;;
13228;SDS011;6680;53.220;10.402;2022-09-17T03:37:12;3.30;;;1.53;;
13228;SDS011;6680;53.220;10.402;2022-09-17T03:39:39;9.30;;;2.50;;
13228;SDS011;6680;53.220;10.402;2022-09-17T03:42:06;5.27;;;1.93;;
13228;SDS011;6680;53.220;10.402;2022-09-17T03:44:32;5.97;;;1.80;;
13228;SDS011;6680;53.220;10.402;2022-09-17T03:46:59;3.13;;;1.80;;
13228;SDS011;6680;53.220;10.402;2022-09-17T03:49:26;2.73;;;2.03;;
13228;SDS011;6680;53.220;10.402;2022-09-17T03:51:52;3.70;;;1.83;;
13228;SDS011;6680;53.220;10.402;2022-09-17T03:54:20;7.40;;;1.73;;
13228;SDS011;6680;53.220;10.402;2022-09-17T03:56:47;5.17;;;1.80;;
13228;SDS011;6680;53.220;10.402;2022-09-17T03:59:14;5.63;;;1.67;;
13228;SDS011;6680;53.220;10.402;2022-09-17T04:01:41;10.87;;;1.90;;
13228;SDS011;6680;53.220;10.402;2022-09-17T04:04:07;8.03;;;2.40;;
13228;SDS011;6680;53.220;10.402;2022-09-17T04:06:34;2.53;;;1.73;;
13228;SDS011;6680;53.220;10.402;2022-09-17T04:09:01;3.30;;;2.30;;
13228;SDS011;6680;53.220;10.402;2022-09-17T04:11:30;5.40;;;1.70;;
13228;SDS011;6680;53.220;10.402;2022-09-17T04:13:57;4.30;;;1.63;;
13228;SDS011;6680;53.220;10.402;2022-09-17T04:16:24;6.40;;;1.97;;
13228;SDS011;6680;53.220;10.402;2022-09-17T04:18:50;5.03;;;1.87;;
13228;SDS011;6680;53.220;10.402;2022-09-17T04:21:17;7.17;;;2.00;;
13228;SDS011;6680;53.220;10.402;2022-09-17T04:23:44;5.37;;;2.03;;
13228;SDS011;6680;53.220;10.402;2022-09-17T04:26:11;3.90;;;1.77;;
13228;SDS011;6680;53.220;10.402;2022-09-17T04:28:39;5.47;;;1.70;;
13228;SDS011;6680;53.220;10.402;2022-09-17T04:31:06;9.17;;;2.30;;
13228;SDS011;6680;53.220;10.402;2022-09-17T04:33:33;6.23;;;2.03;;
13228;SDS011;6680;53.220;10.402;2022-09-17T04:36:01;3.63;;;1.57;;
13228;SDS011;6680;53.220;10.402;2022-09-17T04:38:28;4.10;;;1.83;;
13228;SDS011;6680;53.220;10.402;2022-09-17T04:40:55;3.60;;;1.90;;
13228;SDS011;6680;53.220;10.402;2022-09-17T04:43:23;2.70;;;1.87;;
13228;SDS011;6680;53.220;10.402;2022-09-17T04:45:51;3.80;;;1.83;;
13228;SDS011;6680;53.220;10.402;2022-09-17T04:48:17;4.63;;;1.67;;
13228;SDS011;6680;53.220;10.402;2022-09-17T04:50:44;6.63;;;2.00;;
13228;SDS011;6680;53.220;10.402;2022-09-17T04:53:11;8.80;;;2.00;;
13228;SDS011;6680;53.220;10.402;2022-09-17T04:55:38;7.97;;;2.03;;
13228;SDS011;6680;53.220;10.402;2022-09-17T04:58:04;6.93;;;2.07;;
13228;SDS011;6680;53.220;10.402;2022-09-17T05:00:31;7.27;;;1.90;;
13228;SDS011;6680;53.220;10.402;2022-09-17T05:03:00;5.10;;;1.67;;
13228;SDS011;6680;53.220;10.402;2022-09-17T05:05:27;5.63;;;2.10;;
13228;SDS011;6680;53.220;10.402;2022-09-17T05:07:54;3.10;;;1.60;;
13228;SDS011;6680;53.220;10.402;2022-09-17T05:10:21;7.53;;;2.13;;
13228;SDS011;6680;53.220;10.402;2022-09-17T05:12:49;4.13;;;1.50;;
13228;SDS011;6680;53.220;10.402;2022-09-17T05:15:18;5.43;;;2.00;;
13228;SDS011;6680;53.220;10.402;2022-09-17T05:17:45;3.77;;;2.07;;
13228;SDS011;6680;53.220;10.402;2022-09-17T05:20:14;4.23;;;1.83;;
13228;SDS011;6680;53.220;10.402;2022-09-17T05:22:42;6.33;;;2.10;;
13228;SDS011;6680;53.220;10.402;2022-09-17T05:25:10;4.87;;;1.90;;
13228;SDS011;6680;53.220;10.402;2022-09-17T05:27:37;5.57;;;2.07;;
13228;SDS011;6680;53.220;10.402;2022-09-17T05:30:05;7.40;;;1.43;;
13228;SDS011;6680;53.220;10.402;2022-09-17T05:32:32;5.80;;;2.07;;
13228;SDS011;6680;53.220;10.402;2022-09-17T05:35:00;5.97;;;1.63;;
13228;SDS011;6680;53.220;10.402;2022-09-17T05:37:28;2.77;;;1.60;;
13228;SDS011;6680;53.220;10.402;2022-09-17T05:39:55;4.50;;;1.70;;
13228;SDS011;6680;53.220;10.402;2022-09-17T05:42:21;3.00;;;1.50;;
13228;SDS011;6680;53.220;10.402;2022-09-17T05:44:48;2.93;;;1.60;;
13228;SDS011;6680;53.220;10.402;2022-09-17T05:47:15;5.50;;;1.70;;
13228;SDS011;6680;53.220;10.402;2022-09-17T05:49:42;4.20;;;1.77;;
13228;SDS011;6680;53.220;10.402;2022-09-17T05:52:08;6.30;;;1.93;;
13228;SDS011;6680;53.220;10.402;2022-09-17T05:54:36;1.80;;;1.70;;
13228;SDS011;6680;53.220;10.402;2022-09-17T05:57:03;4.30;;;1.77;;
13228;SDS011;6680;53.220;10.402;2022-09-17T05:59:30;2.80;;;1.30;;
13228;SDS011;6680;53.220;10.402;2022-09-17T06:01:57;3.13;;;1.67;;
13228;SDS011;6680;53.220;10.402;2022-09-17T06:04:24;7.17;;;1.70;;
13228;SDS011;6680;53.220;10.402;2022-09-17T06:06:50;2.90;;;1.67;;
13228;SDS011;6680;53.220;10.402;2022-09-17T06:09:17;3.53;;;1.97;;
13228;SDS011;6680;53.220;10.402;2022-09-17T06:11:46;5.13;;;1.87;;
13228;SDS011;6680;53.220;10.402;2022-09-17T06:14:13;6.37;;;1.87;;
13228;SDS011;6680;53.220;10.402;2022-09-17T06:16:40;3.00;;;1.80;;
13228;SDS011;6680;53.220;10.402;2022-09-17T06:19:07;10.20;;;1.70;;
13228;SDS011;6680;53.220;10.402;2022-09-17T06:21:33;3.23;;;1.63;;
13228;SDS011;6680;53.220;10.402;2022-09-17T06:24:00;7.57;;;1.70;;
13228;SDS011;6680;53.220;10.402;2022-09-17T06:26:29;5.13;;;2.20;;
13228;SDS011;6680;53.220;10.402;2022-09-17T06:28:58;5.33;;;1.80;;
13228;SDS011;6680;53.220;10.402;2022-09-17T06:31:25;5.77;;;1.90;;
13228;SDS011;6680;53.220;10.402;2022-09-17T06:33:54;4.40;;;2.07;;
13228;SDS011;6680;53.220;10.402;2022-09-17T06:36:21;6.27;;;2.00;;
13228;SDS011;6680;53.220;10.402;2022-09-17T06:38:47;4.57;;;1.67;;
13228;SDS011;6680;53.220;10.402;2022-09-17T06:41:14;7.20;;;2.20;;
13228;SDS011;6680;53.220;10.402;2022-09-17T06:43:42;12.80;;;2.97;;
13228;SDS011;6680;53.220;10.402;2022-09-17T06:46:10;7.47;;;2.20;;
13228;SDS011;6680;53.220;10.402;2022-09-17T06:48:37;4.27;;;1.80;;
13228;SDS011;6680;53.220;10.402;2022-09-17T06:51:05;5.17;;;1.57;;
13228;SDS011;6680;53.220;10.402;2022-09-17T06:53:32;5.33;;;2.63;;
13228;SDS011;6680;53.220;10.402;2022-09-17T06:56:00;3.20;;;2.00;;
13228;SDS011;6680;53.220;10.402;2022-09-17T06:58:28;5.30;;;1.90;;
13228;SDS011;6680;53.220;10.402;2022-09-17T07:00:56;6.13;;;1.93;;
13228;SDS011;6680;53.220;10.402;2022-09-17T07:03:26;2.00;;;1.67;;
13228;SDS011;6680;53.220;10.402;2022-09-17T07:05:53;5.33;;;2.47;;
13228;SDS011;6680;53.220;10.402;2022-09-17T07:08:20;6.27;;;2.17;;
13228;SDS011;6680;53.220;10.402;2022-09-17T07:10:46;4.30;;;2.10;;
13228;SDS011;6680;53.220;10.402;2022-09-17T07:13:13;7.13;;;2.57;;
13228;SDS011;6680;53.220;10.402;2022-09-17T07:15:40;5.40;;;1.57;;
13228;SDS011;6680;53.220;10.402;2022-09-17T07:18:07;5.77;;;1.73;;
13228;SDS011;6680;53.220;10.402;2022-09-17T07:20:35;4.63;;;1.70;;
13228;SDS011;6680;53.220;10.402;2022-09-17T07:23:02;3.80;;;1.80;;
13228;SDS011;6680;53.220;10.402;2022-09-17T07:25:29;4.70;;;1.73;;
13228;SDS011;6680;53.220;10.402;2022-09-17T07:27:56;3.03;;;2.33;;
13228;SDS011;6680;53.220;10.402;2022-09-17T07:30:23;6.83;;;2.10;;
13228;SDS011;6680;53.220;10.402;2022-09-17T07:32:50;5.03;;;1.93;;
13228;SDS011;6680;53.220;10.402;2022-09-17T07:35:17;3.57;;;1.70;;
13228;SDS011;6680;53.220;10.402;2022-09-17T07:37:45;13.93;;;2.00;;
13228;SDS011;6680;53.220;10.402;2022-09-17T07:40:12;5.87;;;1.90;;
13228;SDS011;6680;53.220;10.402;2022-09-17T07:42:39;4.77;;;2.10;;
13228;SDS011;6680;53.220;10.402;2022-09-17T07:45:06;6.63;;;2.63;;
13228;SDS011;6680;53.220;10.402;2022-09-17T07:47:37;5.73;;;2.10;;
13228;SDS011;6680;53.220;10.402;2022-09-17T07:50:05;5.67;;;2.10;;
13228;SDS011;6680;53.220;10.402;2022-09-17T07:52:32;6.77;;;1.97;;
13228;SDS011;6680;53.220;10.402;2022-09-17T07:55:00;8.30;;;2.03;;
13228;SDS011;6680;53.220;10.402;2022-09-17T07:57:27;3.13;;;1.93;;
13228;SDS011;6680;53.220;10.402;2022-09-17T07:59:54;6.67;;;2.03;;
13228;SDS011;6680;53.220;10.402;2022-09-17T08:02:20;7.17;;;2.27;;
13228;SDS011;6680;53.220;10.402;2022-09-17T08:04:47;6.10;;;1.60;;
13228;SDS011;6680;53.220;10.402;2022-09-17T08:07:14;8.23;;;2.17;;
13228;SDS011;6680;53.220;10.402;2022-09-17T08:09:41;6.40;;;1.50;;
13228;SDS011;6680;53.220;10.402;2022-09-17T08:12:09;5.47;;;2.10;;
13228;SDS011;6680;53.220;10.402;2022-09-17T08:14:36;8.80;;;1.80;;
13228;SDS011;6680;53.220;10.402;2022-09-17T08:17:03;7.13;;;1.60;;
13228;SDS011;6680;53.220;10.402;2022-09-17T08:19:32;7.13;;;1.90;;
13228;SDS011;6680;53.220;10.402;2022-09-17T08:21:59;4.97;;;1.63;;
13228;SDS011;6680;53.220;10.402;2022-09-17T08:24:25;3.90;;;2.17;;
13228;SDS011;6680;53.220;10.402;2022-09-17T08:26:52;3.93;;;1.80;;
13228;SDS011;6680;53.220;10.402;2022-09-17T08:29:20;4.43;;;1.83;;
13228;SDS011;6680;53.220;10.402;2022-09-17T08:31:46;6.97;;;2.03;;
13228;SDS011;6680;53.220;10.402;2022-09-17T08:34:13;5.90;;;1.97;;
13228;SDS011;6680;53.220;10.402;2022-09-17T08:36:40;6.20;;;2.00;;
13228;SDS011;6680;53.220;10.402;2022-09-17T08:39:07;3.23;;;1.67;;
13228;SDS011;6680;53.220;10.402;2022-09-17T08:41:39;1.63;;;1.40;;
13228;SDS011;6680;53.220;10.402;2022-09-17T08:44:15;3.63;;;1.60;;
13228;SDS011;6680;53.220;10.402;2022-09-17T08:46:53;1.77;;;1.50;;
13228;SDS011;6680;53.220;10.402;2022-09-17T08:49:31;3.37;;;1.83;;
13228;SDS011;6680;53.220;10.402;2022-09-17T08:52:05;3.50;;;1.67;;
13228;SDS011;6680;53.220;10.402;2022-09-17T08:54:45;5.57;;;1.70;;
13228;SDS011;6680;53.220;10.402;2022-09-17T08:57:20;5.63;;;1.70;;
13228;SDS011;6680;53.220;10.402;2022-09-17T08:59:55;9.03;;;1.80;;
13228;SDS011;6680;53.220;10.402;2022-09-17T09:02:40;9.53;;;1.90;;
13228;SDS011;6680;53.220;10.402;2022-09-17T09:05:15;4.30;;;1.93;;
13228;SDS011;6680;53.220;10.402;2022-09-17T09:07:46;1.80;;;1.50;;
13228;SDS011;6680;53.220;10.402;2022-09-17T09:10:17;2.67;;;1.67;;
13228;SDS011;6680;53.220;10.402;2022-09-17T09:12:47;4.87;;;1.90;;
13228;SDS011;6680;53.220;10.402;2022-09-17T09:15:20;2.07;;;1.30;;
13228;SDS011;6680;53.220;10.402;2022-09-17T09:17:54;1.97;;;1.37;;
13228;SDS011;6680;53.220;10.402;2022-09-17T09:20:27;2.87;;;1.70;;
13228;SDS011;6680;53.220;10.402;2022-09-17T09:22:58;1.10;;;1.10;;
13228;SDS011;6680;53.220;10.402;2022-09-17T09:25:35;2.63;;;1.40;;
13228;SDS011;6680;53.220;10.402;2022-09-17T09:28:12;1.30;;;1.13;;
13228;SDS011;6680;53.220;10.402;2022-09-17T09:30:53;3.10;;;1.53;;
13228;SDS011;6680;53.220;10.402;2022-09-17T09:33:30;6.33;;;1.83;;
13228;SDS011;6680;53.220;10.402;2022-09-17T09:36:01;2.00;;;1.53;;
13228;SDS011;6680;53.220;10.402;2022-09-17T09:38:31;2.20;;;1.30;;
13228;SDS011;6680;53.220;10.402;2022-09-17T09:41:02;2.20;;;1.30;;
13228;SDS011;6680;53.220;10.402;2022-09-17T09:43:35;2.53;;;1.80;;
13228;SDS011;6680;53.220;10.402;2022-09-17T09:46:12;6.70;;;2.13;;
13228;SDS011;6680;53.220;10.402;2022-09-17T09:48:51;2.53;;;1.20;;
13228;SDS011;6680;53.220;10.402;2022-09-17T09:51:29;2.40;;;1.33;;
13228;SDS011;6680;53.220;10.402;2022-09-17T09:54:06;5.90;;;1.53;;
13228;SDS011;6680;53.220;10.402;2022-09-17T09:56:49;3.03;;;1.47;;
13228;SDS011;6680;53.220;10.402;2022-09-17T09:59:20;2.20;;;1.53;;
13228;SDS011;6680;53.220;10.402;2022-09-17T10:01:48;8.60;;;2.03;;
13228;SDS011;6680;53.220;10.402;2022-09-17T10:04:17;2.03;;;1.43;;
13228;SDS011;6680;53.220;10.402;2022-09-17T10:06:46;5.77;;;2.20;;
13228;SDS011;6680;53.220;10.402;2022-09-17T10:09:15;1.83;;;1.70;;
13228;SDS011;6680;53.220;10.402;2022-09-17T10:11:57;1.83;;;1.40;;
13228;SDS011;6680;53.220;10.402;2022-09-17T10:14:29;5.13;;;1.57;;
13228;SDS011;6680;53.220;10.402;2022-09-17T10:22:39;1.50;;;1.30;;
13228;SDS011;6680;53.220;10.402;2022-09-17T10:25:18;2.80;;;1.50;;
13228;SDS011;6680;53.220;10.402;2022-09-17T10:27:50;5.23;;;1.47;;
13228;SDS011;6680;53.220;10.402;2022-09-17T10:30:17;2.20;;;1.40;;
13228;SDS011;6680;53.220;10.402;2022-09-17T10:32:45;1.77;;;1.50;;
13228;SDS011;6680;53.220;10.402;2022-09-17T10:35:41;2.80;;;1.53;;
13228;SDS011;6680;53.220;10.402;2022-09-17T10:38:25;2.20;;;1.37;;
13228;SDS011;6680;53.220;10.402;2022-09-17T10:41:02;2.67;;;1.43;;
13228;SDS011;6680;53.220;10.402;2022-09-17T10:43:45;1.87;;;1.50;;
13228;SDS011;6680;53.220;10.402;2022-09-17T10:46:13;1.60;;;1.50;;
13228;SDS011;6680;53.220;10.402;2022-09-17T10:48:45;1.73;;;1.20;;
13228;SDS011;6680;53.220;10.402;2022-09-17T10:51:20;1.20;;;1.20;;
13228;SDS011;6680;53.220;10.402;2022-09-17T10:54:00;1.70;;;1.50;;
13228;SDS011;6680;53.220;10.402;2022-09-17T10:56:39;1.47;;;1.10;;
13228;SDS011;6680;53.220;10.402;2022-09-17T10:59:26;1.47;;;1.37;;
13228;SDS011;6680;53.220;10.402;2022-09-17T11:02:10;4.73;;;1.40;;
13228;SDS011;6680;53.220;10.402;2022-09-17T11:04:56;1.30;;;1.20;;
13228;SDS011;6680;53.220;10.402;2022-09-17T11:07:33;1.20;;;1.20;;
13228;SDS011;6680;53.220;10.402;2022-09-17T11:10:12;1.03;;;0.90;;
13228;SDS011;6680;53.220;10.402;2022-09-17T11:12:49;3.13;;;1.13;;
13228;SDS011;6680;53.220;10.402;2022-09-17T11:15:30;0.83;;;0.83;;
13228;SDS011;6680;53.220;10.402;2022-09-17T11:18:12;1.20;;;1.20;;
13228;SDS011;6680;53.220;10.402;2022-09-17T11:24:06;1.60;;;1.00;;
13228;SDS011;6680;53.220;10.402;2022-09-17T11:26:49;1.57;;;1.13;;
13228;SDS011;6680;53.220;10.402;2022-09-17T11:29:29;3.30;;;1.50;;
13228;SDS011;6680;53.220;10.402;2022-09-17T11:32:11;1.30;;;1.20;;
13228;SDS011;6680;53.220;10.402;2022-09-17T11:34:49;1.00;;;1.00;;
13228;SDS011;6680;53.220;10.402;2022-09-17T11:37:25;1.97;;;1.57;;
13228;SDS011;6680;53.220;10.402;2022-09-17T11:39:57;3.40;;;1.30;;
13228;SDS011;6680;53.220;10.402;2022-09-17T11:42:29;1.53;;;1.43;;
13228;SDS011;6680;53.220;10.402;2022-09-17T11:45:00;2.27;;;1.60;;
13228;SDS011;6680;53.220;10.402;2022-09-17T11:47:31;1.30;;;1.20;;
13228;SDS011;6680;53.220;10.402;2022-09-17T11:50:02;2.73;;;1.17;;
13228;SDS011;6680;53.220;10.402;2022-09-17T11:52:36;2.17;;;1.53;;
13228;SDS011;6680;53.220;10.402;2022-09-17T11:55:08;2.10;;;1.40;;
13228;SDS011;6680;53.220;10.402;2022-09-17T11:57:45;1.47;;;1.37;;
13228;SDS011;6680;53.220;10.402;2022-09-17T12:00:14;2.67;;;1.33;;
13228;SDS011;6680;53.220;10.402;2022-09-17T12:02:46;2.17;;;1.20;;
13228;SDS011;6680;53.220;10.402;2022-09-17T12:05:18;1.37;;;1.20;;
13228;SDS011;6680;53.220;10.402;2022-09-17T12:07:51;3.03;;;1.50;;
13228;SDS011;6680;53.220;10.402;2022-09-17T12:13:15;2.60;;;1.40;;
13228;SDS011;6680;53.220;10.402;2022-09-17T12:15:48;1.17;;;1.07;;
13228;SDS011;6680;53.220;10.402;2022-09-17T12:18:19;2.70;;;1.30;;
13228;SDS011;6680;53.220;10.402;2022-09-17T12:20:54;4.00;;;1.33;;
13228;SDS011;6680;53.220;10.402;2022-09-17T12:23:29;1.63;;;1.10;;
13228;SDS011;6680;53.220;10.402;2022-09-17T12:26:00;2.30;;;1.40;;
13228;SDS011;6680;53.220;10.402;2022-09-17T12:28:37;2.50;;;1.30;;
13228;SDS011;6680;53.220;10.402;2022-09-17T12:31:09;6.97;;;1.60;;
13228;SDS011;6680;53.220;10.402;2022-09-17T12:33:44;1.40;;;1.30;;
13228;SDS011;6680;53.220;10.402;2022-09-17T12:36:20;2.40;;;1.27;;
13228;SDS011;6680;53.220;10.402;2022-09-17T12:39:07;2.40;;;1.40;;
13228;SDS011;6680;53.220;10.402;2022-09-17T12:42:05;1.40;;;1.30;;
13228;SDS011;6680;53.220;10.402;2022-09-17T12:44:49;1.67;;;1.40;;
13228;SDS011;6680;53.220;10.402;2022-09-17T12:50:33;1.27;;;1.17;;
13228;SDS011;6680;53.220;10.402;2022-09-17T12:53:13;1.47;;;1.27;;
13228;SDS011;6680;53.220;10.402;2022-09-17T12:55:53;1.47;;;1.30;;
13228;SDS011;6680;53.220;10.402;2022-09-17T12:58:39;1.13;;;1.03;;
13228;SDS011;6680;53.220;10.402;2022-09-17T13:01:16;1.30;;;1.30;;
13228;SDS011;6680;53.220;10.402;2022-09-17T13:03:49;3.03;;;1.47;;
13228;SDS011;6680;53.220;10.402;2022-09-17T13:06:25;1.70;;;1.40;;
13228;SDS011;6680;53.220;10.402;2022-09-17T13:09:23;3.83;;;1.63;;
13228;SDS011;6680;53.220;10.402;2022-09-17T13:12:26;2.30;;;1.37;;
13228;SDS011;6680;53.220;10.402;2022-09-17T13:15:17;5.93;;;1.77;;
13228;SDS011;6680;53.220;10.402;2022-09-17T13:18:12;1.10;;;1.03;;
13228;SDS011;6680;53.220;10.402;2022-09-17T13:20:46;1.40;;;1.30;;
13228;SDS011;6680;53.220;10.402;2022-09-17T13:23:32;1.50;;;1.40;;
13228;SDS011;6680;53.220;10.402;2022-09-17T13:26:02;1.10;;;1.10;;
13228;SDS011;6680;53.220;10.402;2022-09-17T13:28:39;2.40;;;1.37;;
13228;SDS011;6680;53.220;10.402;2022-09-17T13:31:08;2.53;;;1.40;;
13228;SDS011;6680;53.220;10.402;2022-09-17T13:33:55;1.23;;;1.17;;
13228;SDS011;6680;53.220;10.402;2022-09-17T13:36:36;3.53;;;1.67;;
13228;SDS011;6680;53.220;10.402;2022-09-17T13:39:10;1.90;;;1.00;;
13228;SDS011;6680;53.220;10.402;2022-09-17T13:41:59;1.20;;;1.10;;
13228;SDS011;6680;53.220;10.402;2022-09-17T13:44:31;1.47;;;1.10;;
13228;SDS011;6680;53.220;10.402;2022-09-17T13:47:07;1.50;;;1.40;;
13228;SDS011;6680;53.220;10.402;2022-09-17T13:49:42;9.97;;;3.70;;
13228;SDS011;6680;53.220;10.402;2022-09-17T13:52:11;4.63;;;1.70;;
13228;SDS011;6680;53.220;10.402;2022-09-17T13:54:38;3.43;;;2.00;;
13228;SDS011;6680;53.220;10.402;2022-09-17T13:57:10;4.40;;;1.73;;
13228;SDS011;6680;53.220;10.402;2022-09-17T13:59:51;1.97;;;1.40;;
13228;SDS011;6680;53.220;10.402;2022-09-17T14:08:09;4.83;;;1.53;;
13228;SDS011;6680;53.220;10.402;2022-09-17T14:10:41;1.57;;;1.10;;
13228;SDS011;6680;53.220;10.402;2022-09-17T14:19:25;3.50;;;1.40;;
13228;SDS011;6680;53.220;10.402;2022-09-17T14:22:00;1.33;;;0.93;;
13228;SDS011;6680;53.220;10.402;2022-09-17T14:24:34;2.13;;;1.50;;
13228;SDS011;6680;53.220;10.402;2022-09-17T14:27:05;1.40;;;1.20;;
13228;SDS011;6680;53.220;10.402;2022-09-17T14:29:40;2.00;;;1.30;;
13228;SDS011;6680;53.220;10.402;2022-09-17T14:32:35;2.33;;;1.30;;
13228;SDS011;6680;53.220;10.402;2022-09-17T14:35:16;1.33;;;1.20;;
13228;SDS011;6680;53.220;10.402;2022-09-17T14:37:49;1.87;;;1.60;;
13228;SDS011;6680;53.220;10.402;2022-09-17T14:40:21;1.50;;;1.40;;
13228;SDS011;6680;53.220;10.402;2022-09-17T14:42:50;2.13;;;1.53;;
13228;SDS011;6680;53.220;10.402;2022-09-17T14:45:20;2.70;;;1.80;;
13228;SDS011;6680;53.220;10.402;2022-09-17T14:50:51;1.30;;;1.20;;
13228;SDS011;6680;53.220;10.402;2022-09-17T14:53:18;1.67;;;1.30;;
13228;SDS011;6680;53.220;10.402;2022-09-17T14:55:46;2.43;;;1.53;;
13228;SDS011;6680;53.220;10.402;2022-09-17T14:58:24;1.40;;;1.10;;
13228;SDS011;6680;53.220;10.402;2022-09-17T15:00:56;2.17;;;1.67;;
13228;SDS011;6680;53.220;10.402;2022-09-17T15:03:25;1.47;;;1.37;;
13228;SDS011;6680;53.220;10.402;2022-09-17T15:05:52;2.70;;;1.60;;
13228;SDS011;6680;53.220;10.402;2022-09-17T15:08:20;1.20;;;1.20;;
13228;SDS011;6680;53.220;10.402;2022-09-17T15:10:49;1.73;;;1.63;;
13228;SDS011;6680;53.220;10.402;2022-09-17T15:13:19;1.80;;;1.30;;
13228;SDS011;6680;53.220;10.402;2022-09-17T15:15:51;1.77;;;1.10;;
13228;SDS011;6680;53.220;10.402;2022-09-17T15:18:21;2.87;;;1.40;;
13228;SDS011;6680;53.220;10.402;2022-09-17T15:20:57;1.40;;;1.30;;
13228;SDS011;6680;53.220;10.402;2022-09-17T15:23:25;1.83;;;1.33;;
13228;SDS011;6680;53.220;10.402;2022-09-17T15:25:55;1.43;;;1.40;;
13228;SDS011;6680;53.220;10.402;2022-09-17T15:28:26;3.47;;;1.20;;
13228;SDS011;6680;53.220;10.402;2022-09-17T15:30:56;2.47;;;1.20;;
13228;SDS011;6680;53.220;10.402;2022-09-17T15:33:23;1.40;;;1.30;;
13228;SDS011;6680;53.220;10.402;2022-09-17T15:35:58;1.97;;;1.47;;
13228;SDS011;6680;53.220;10.402;2022-09-17T15:38:26;2.37;;;1.50;;
13228;SDS011;6680;53.220;10.402;2022-09-17T15:40:54;3.80;;;1.40;;
13228;SDS011;6680;53.220;10.402;2022-09-17T15:43:37;2.13;;;1.43;;
13228;SDS011;6680;53.220;10.402;2022-09-17T15:46:18;3.60;;;1.60;;
13228;SDS011;6680;53.220;10.402;2022-09-17T15:48:47;2.67;;;1.40;;